createdAt,value
2019-04-25T00:01:31.345Z,96293.44
2019-04-25T00:04:02.365Z,96296.08
2019-04-25T00:06:34.419Z,96283.48
2019-04-25T00:09:09.131Z,96276.02
2019-04-25T00:11:43.389Z,96282.36
2019-04-25T00:14:13.793Z,96283.91
2019-04-25T00:16:47.157Z,96288.80
2019-04-25T00:19:18.176Z,96274.53
2019-04-25T00:22:02.782Z,96274.20
2019-04-25T00:24:55.121Z,96270.16
2019-04-25T00:27:27.282Z,96266.23
2019-04-25T00:30:01.573Z,96262.22
2019-04-25T00:32:33.730Z,96267.59
2019-04-25T00:35:04.923Z,96272.78
2019-04-25T01:03:17.477Z,96263.10
2019-04-25T01:05:47.791Z,96263.31
2019-04-25T01:08:18.712Z,96269.69
2019-04-25T01:10:50.529Z,96275.52
2019-04-25T01:13:22.387Z,96260.91
2019-04-25T01:15:53.737Z,96264.94
2019-04-25T01:18:37.466Z,96265.13
2019-04-25T01:21:08.987Z,96259.17
2019-04-25T01:23:40.246Z,96266.40
2019-04-25T01:26:13.171Z,96256.67
2019-04-25T01:28:46.056Z,96271.82
2019-04-25T01:31:19.466Z,96259.58
2019-04-25T01:33:50.644Z,96266.97
2019-04-25T01:36:33.292Z,96252.16
2019-04-25T01:39:11.439Z,96254.42
2019-04-25T01:41:58.326Z,96256.00
2019-04-25T01:44:41.944Z,96263.95
2019-04-25T01:47:14.071Z,96265.13
2019-04-25T01:49:46.183Z,96271.34
2019-04-25T01:52:17.831Z,96272.77
2019-04-25T01:54:49.450Z,96272.15
2019-04-25T01:57:19.743Z,96283.63
2019-04-25T01:59:51.390Z,96281.13
2019-04-25T02:02:24.421Z,96285.23
2019-04-25T02:04:58.774Z,96279.05
2019-04-25T02:07:29.767Z,96283.16
2019-04-25T02:10:03.647Z,96294.83
2019-04-25T02:12:40.211Z,96293.25
2019-04-25T02:15:13.826Z,96302.44
2019-04-25T02:17:44.857Z,96300.02
2019-04-25T02:20:23.817Z,96296.73
2019-04-25T02:22:56.227Z,96303.01
2019-04-25T02:25:27.979Z,96295.63
2019-04-25T02:28:01.490Z,96289.37
2019-04-25T02:30:35.267Z,96298.16
2019-04-25T02:33:08.804Z,96283.28
2019-04-25T02:35:38.000Z,96288.46
2019-04-25T02:38:09.199Z,96288.53
2019-04-25T02:40:41.061Z,96297.30
2019-04-25T02:43:14.252Z,96291.04
2019-04-25T02:46:07.936Z,96279.17
2019-04-25T02:49:00.974Z,96281.30
2019-04-25T02:51:49.667Z,96281.95
2019-04-25T02:54:21.417Z,96283.48
2019-04-25T02:56:54.758Z,96281.34
2019-04-25T02:59:25.971Z,96286.50
2019-04-25T03:01:59.150Z,96289.87
2019-04-25T03:04:30.944Z,96278.08
2019-04-25T03:07:07.049Z,96281.28
2019-04-25T03:09:35.316Z,96288.29
2019-04-25T03:12:08.152Z,96291.27
2019-04-25T03:14:39.870Z,96282.74
2019-04-25T03:17:11.548Z,96289.65
2019-04-25T03:20:03.134Z,96280.03
2019-04-25T03:22:36.389Z,96279.11
2019-04-25T03:25:11.516Z,96282.03
2019-04-25T03:27:40.617Z,96285.52
2019-04-25T03:30:14.881Z,96271.52
2019-04-25T03:32:45.457Z,96263.86
2019-04-25T03:35:16.803Z,96263.39
2019-04-25T03:37:48.292Z,96271.49
2019-04-25T03:40:19.985Z,96270.52
2019-04-25T03:42:51.341Z,96277.61
2019-04-25T03:45:23.696Z,96283.62
2019-04-25T03:47:55.963Z,96288.91
2019-04-25T03:50:27.027Z,96293.55
2019-04-25T03:52:58.585Z,96285.22
2019-04-25T03:55:29.735Z,96283.25
2019-04-25T03:58:00.744Z,96289.09
2019-04-25T04:00:32.148Z,96285.09
2019-04-25T04:03:03.896Z,96274.73
2019-04-25T04:05:35.644Z,96282.53
2019-04-25T04:08:07.586Z,96283.96
2019-04-25T04:10:39.373Z,96281.64
2019-04-25T04:13:10.714Z,96277.22
2019-04-25T04:15:43.403Z,96275.63
2019-04-25T04:18:33.998Z,96270.61
2019-04-25T04:21:24.129Z,96262.64
2019-04-25T04:24:02.263Z,96260.95
2019-04-25T04:26:34.139Z,96257.80
2019-04-25T04:29:05.940Z,96266.51
2019-04-25T04:31:38.369Z,96258.72
2019-04-25T04:34:10.567Z,96249.98
2019-04-25T04:36:41.872Z,96243.48
2019-04-25T04:39:13.851Z,96244.71
2019-04-25T04:41:45.898Z,96251.58
2019-04-25T04:44:18.134Z,96253.94
2019-04-25T04:46:49.426Z,96255.75
2019-04-25T04:49:21.082Z,96258.72
2019-04-25T04:51:54.153Z,96244.95
2019-04-25T04:54:25.902Z,96241.49
2019-04-25T04:56:57.949Z,96247.94
2019-04-25T04:59:29.885Z,96247.98
2019-04-25T05:02:33.339Z,96246.91
2019-04-25T05:05:23.527Z,96240.66
2019-04-25T05:07:59.700Z,96228.53
2019-04-25T05:10:31.378Z,96239.17
2019-04-25T05:13:04.245Z,96245.25
2019-04-25T05:15:35.417Z,96237.81
2019-04-25T05:18:06.958Z,96241.52
2019-04-25T05:20:38.454Z,96243.09
2019-04-25T05:23:09.498Z,96248.09
2019-04-25T05:25:40.465Z,96249.09
2019-04-25T05:28:13.143Z,96250.55
2019-04-25T05:31:01.411Z,96259.46
2019-04-25T05:33:33.797Z,96257.72
2019-04-25T05:36:20.602Z,96263.84
2019-04-25T05:38:53.820Z,96256.39
2019-04-25T05:41:35.949Z,96261.05
2019-04-25T05:44:07.315Z,96261.56
2019-04-25T05:46:38.930Z,96260.14
2019-04-25T05:49:10.202Z,96266.59
2019-04-25T05:51:43.751Z,96273.41
2019-04-25T05:54:16.542Z,96260.84
2019-04-25T05:56:48.265Z,96262.11
2019-04-25T05:59:19.510Z,96260.88
2019-04-25T06:01:50.971Z,96262.30
2019-04-25T06:04:21.283Z,96275.21
2019-04-25T06:06:53.043Z,96276.97
2019-04-25T06:09:54.409Z,96278.16
2019-04-25T06:12:33.538Z,96270.69
2019-04-25T06:15:05.271Z,96270.88
2019-04-25T06:17:44.707Z,96264.84
2019-04-25T06:20:16.968Z,96269.58
2019-04-25T06:23:03.268Z,96270.75
2019-04-25T06:25:38.972Z,96267.45
2019-04-25T06:28:08.914Z,96272.36
2019-04-25T06:30:40.313Z,96273.13
2019-04-25T06:33:13.240Z,96267.91
2019-04-25T06:35:44.338Z,96272.97
2019-04-25T06:38:49.013Z,96275.19
2019-04-25T06:41:21.087Z,96273.61
2019-04-25T06:43:55.146Z,96278.79
2019-04-25T06:46:47.799Z,96274.18
2019-04-25T06:49:25.495Z,96272.03
2019-04-25T06:51:56.227Z,96269.36
2019-04-25T06:54:28.158Z,96268.87
2019-04-25T06:56:59.230Z,96272.19
2019-04-25T06:59:30.192Z,96272.40
2019-04-25T07:02:01.514Z,96271.70
2019-04-25T07:04:33.958Z,96266.03
2019-04-25T07:07:12.130Z,96271.32
2019-04-25T07:09:39.172Z,96273.87
2019-04-25T07:12:10.188Z,96266.34
2019-04-25T07:14:41.476Z,96262.69
2019-04-25T07:17:14.292Z,96265.27
2019-04-25T07:19:45.666Z,96266.28
2019-04-25T07:22:16.604Z,96265.72
2019-04-25T07:24:47.940Z,96254.77
2019-04-25T07:27:36.000Z,96249.94
2019-04-25T07:30:48.405Z,96246.78
2019-04-25T07:33:16.122Z,96243.64
2019-04-25T07:35:48.124Z,96242.34
2019-04-25T07:38:19.834Z,96237.00
2019-04-25T07:40:51.123Z,96236.08
2019-04-25T07:43:23.368Z,96239.59
2019-04-25T07:45:54.741Z,96230.57
2019-04-25T07:48:26.873Z,96233.69
2019-04-25T07:50:58.102Z,96228.59
2019-04-25T07:53:30.694Z,96227.02
2019-04-25T07:56:04.202Z,96223.97
2019-04-25T07:58:49.311Z,96220.50
2019-04-25T08:01:16.160Z,96215.89
2019-04-25T08:03:47.376Z,96212.17
2019-04-25T08:06:18.104Z,96215.80
2019-04-25T08:08:49.465Z,96217.39
2019-04-25T08:11:20.508Z,96217.87
2019-04-25T08:13:58.935Z,96209.85
2019-04-25T08:16:31.294Z,96210.45
2019-04-25T08:19:04.089Z,96214.10
2019-04-25T08:21:36.642Z,96208.84
2019-04-25T08:24:07.288Z,96198.02
2019-04-25T08:26:39.346Z,96189.22
2019-04-25T08:29:10.097Z,96194.96
2019-04-25T08:31:41.452Z,96198.31
2019-04-25T08:34:14.491Z,96192.77
2019-04-25T08:36:46.292Z,96188.95
2019-04-25T08:39:17.636Z,96185.18
2019-04-25T08:41:49.298Z,96186.90
2019-04-25T08:44:20.034Z,96189.44
2019-04-25T08:46:51.157Z,96186.73
2019-04-25T08:49:40.093Z,96188.50
2019-04-25T08:52:11.163Z,96184.13
2019-04-25T08:55:04.542Z,96178.86
2019-04-25T08:58:06.408Z,96185.38
2019-04-25T09:01:08.454Z,96178.45
2019-04-25T09:03:51.383Z,96187.73
2019-04-25T09:06:24.403Z,96191.23
2019-04-25T09:08:55.409Z,96174.64
2019-04-25T09:11:26.807Z,96177.89
2019-04-25T09:13:57.439Z,96163.64
2019-04-25T09:16:28.719Z,96174.41
2019-04-25T09:18:59.754Z,96180.55
2019-04-25T09:21:31.416Z,96171.55
2019-04-25T09:24:03.389Z,96169.47
2019-04-25T09:26:36.091Z,96164.83
2019-04-25T09:29:16.787Z,96154.80
2019-04-25T09:31:41.286Z,96157.57
2019-04-25T09:34:14.009Z,96154.08
2019-04-25T09:36:45.409Z,96153.28
2019-04-25T09:39:55.818Z,96145.73
2019-04-25T09:42:27.378Z,96142.69
2019-04-25T09:45:20.312Z,96133.89
2019-04-25T09:47:53.371Z,96138.05
2019-04-25T09:50:38.776Z,96137.00
2019-04-25T09:53:21.057Z,96129.17
2019-04-25T09:55:50.595Z,96132.86
2019-04-25T09:58:33.982Z,96129.24
2019-04-25T10:01:11.003Z,96126.56
2019-04-25T10:03:43.564Z,96127.52
2019-04-25T10:06:17.242Z,96127.91
2019-04-25T10:08:48.294Z,96128.65
2019-04-25T10:11:19.065Z,96124.56
2019-04-25T10:14:07.586Z,96122.45
2019-04-25T10:16:39.014Z,96124.99
2019-04-25T10:19:09.814Z,96121.77
2019-04-25T10:21:41.914Z,96120.73
2019-04-25T10:24:14.132Z,96114.95
2019-04-25T10:26:45.457Z,96110.47
2019-04-25T10:29:17.527Z,96110.11
2019-04-25T10:31:49.235Z,96112.14
2019-04-25T10:34:20.845Z,96110.12
2019-04-25T10:36:53.258Z,96105.64
2019-04-25T10:39:24.973Z,96112.38
2019-04-25T10:41:56.923Z,96118.58
2019-04-25T10:44:28.706Z,96116.43
2019-04-25T10:46:59.741Z,96118.44
2019-04-25T10:49:31.138Z,96110.59
2019-04-25T10:52:02.146Z,96105.86
2019-04-25T10:54:35.132Z,96105.45
2019-04-25T10:57:06.824Z,96104.08
2019-04-25T10:59:38.215Z,96097.25
2019-04-25T11:02:10.831Z,96095.80
2019-04-25T11:04:48.857Z,96097.77
2019-04-25T11:07:20.731Z,96094.45
2019-04-25T11:09:53.932Z,96097.68
2019-04-25T11:12:25.330Z,96091.39
2019-04-25T11:14:56.762Z,96088.56
2019-04-25T11:17:28.520Z,96082.05
2019-04-25T11:19:59.555Z,96081.20
2019-04-25T11:22:30.420Z,96081.64
2019-04-25T11:25:02.363Z,96076.48
2019-04-25T11:27:34.173Z,96068.01
2019-04-25T11:30:11.176Z,96067.13
2019-04-25T11:32:38.244Z,96067.67
2019-04-25T11:35:09.451Z,96061.55
2019-04-25T11:37:40.635Z,96068.25
2019-04-25T11:40:27.408Z,96059.90
2019-04-25T11:42:59.052Z,96052.55
2019-04-25T11:45:30.246Z,96048.89
2019-04-25T11:48:01.964Z,96049.92
2019-04-25T11:50:33.033Z,96045.25
2019-04-25T11:53:04.821Z,96038.63
2019-04-25T11:55:36.213Z,96036.06
2019-04-25T11:58:07.471Z,96037.59
2019-04-25T12:00:38.140Z,96044.13
2019-04-25T12:03:09.693Z,96035.24
2019-04-25T12:05:41.035Z,96035.00
2019-04-25T12:08:13.489Z,96034.38
2019-04-25T12:10:45.789Z,96034.56
2019-04-25T12:13:17.541Z,96034.22
2019-04-25T12:15:49.857Z,96032.78
2019-04-25T12:18:20.942Z,96034.67
2019-04-25T12:20:53.264Z,96045.22
2019-04-25T12:23:25.845Z,96031.57
2019-04-25T12:25:57.643Z,96027.55
2019-04-25T12:28:28.963Z,96031.02
2019-04-25T12:31:00.045Z,96028.58
2019-04-25T12:33:31.686Z,96022.82
2019-04-25T12:36:02.442Z,96026.36
2019-04-25T12:38:35.448Z,96024.25
2019-04-25T12:41:06.570Z,96026.96
2019-04-25T12:43:40.027Z,96024.35
2019-04-25T12:46:20.069Z,96019.92
2019-04-25T12:48:51.704Z,96019.27
2019-04-25T12:51:23.035Z,96019.48
2019-04-25T12:53:55.229Z,96020.47
2019-04-25T12:56:27.395Z,96020.09
2019-04-25T12:58:58.332Z,96024.30
2019-04-25T13:01:30.002Z,96023.05
2019-04-25T13:04:01.625Z,96023.41
2019-04-25T13:06:33.815Z,96017.80
2019-04-25T13:09:07.073Z,96022.00
2019-04-25T13:11:38.417Z,96019.64
2019-04-25T13:14:09.035Z,96019.55
2019-04-25T13:16:39.956Z,96024.73
2019-04-25T13:19:20.299Z,96028.09
2019-04-25T13:21:43.888Z,96025.76
2019-04-25T13:24:15.261Z,96022.16
2019-04-25T13:26:53.479Z,96022.95
2019-04-25T13:29:35.897Z,96017.03
2019-04-25T13:32:24.121Z,96023.09
2019-04-25T13:34:56.385Z,96017.41
2019-04-25T13:37:28.875Z,96014.52
2019-04-25T13:40:00.631Z,96013.52
2019-04-25T13:42:33.276Z,96008.40
2019-04-25T13:45:05.178Z,96003.03
2019-04-25T13:47:37.420Z,96002.09
2019-04-25T13:50:08.978Z,96009.06
2019-04-25T13:52:41.034Z,96008.59
2019-04-25T13:55:13.675Z,96012.41
2019-04-25T13:57:45.390Z,96018.22
2019-04-25T14:00:17.855Z,96016.52
2019-04-25T14:02:49.582Z,96020.00
2019-04-25T14:05:22.545Z,96019.17
2019-04-25T14:07:53.708Z,96010.58
2019-04-25T14:10:26.419Z,96014.72
2019-04-25T14:12:57.933Z,96010.78
2019-04-25T14:15:30.364Z,96010.02
2019-04-25T14:18:26.653Z,96012.34
2019-04-25T14:21:03.584Z,96012.82
2019-04-25T14:23:35.744Z,96010.13
2019-04-25T14:26:06.771Z,96006.46
2019-04-25T14:28:38.441Z,96003.27
2019-04-25T14:31:13.144Z,96000.59
2019-04-25T14:33:44.593Z,95999.98
2019-04-25T14:36:15.641Z,96005.77
2019-04-25T14:38:46.982Z,96001.01
2019-04-25T14:41:17.650Z,96000.55
2019-04-25T14:43:48.676Z,96009.30
2019-04-25T14:46:35.778Z,96007.25
2019-04-25T14:49:06.352Z,96008.09
2019-04-25T14:51:37.632Z,96007.43
2019-04-25T14:54:12.992Z,95998.43
2019-04-25T14:56:55.631Z,96009.16
2019-04-25T14:59:26.723Z,95999.03
2019-04-25T15:01:58.031Z,96001.77
2019-04-25T15:04:30.075Z,96005.92
2019-04-25T15:07:02.195Z,96000.39
2019-04-25T15:09:33.407Z,96006.83
2019-04-25T15:12:04.820Z,96008.10
2019-04-25T15:14:35.446Z,96008.78
2019-04-25T15:17:06.916Z,96005.94
2019-04-25T15:19:38.595Z,96008.36
2019-04-25T15:22:09.610Z,96003.19
2019-04-25T15:24:40.836Z,96001.14
2019-04-25T15:27:12.622Z,96002.78
2019-04-25T15:29:44.515Z,96001.91
2019-04-25T15:32:18.217Z,96000.63
2019-04-25T15:34:55.142Z,95997.98
2019-04-25T15:37:40.925Z,96000.89
2019-04-25T15:40:19.656Z,95998.63
2019-04-25T15:43:11.582Z,96002.23
2019-04-25T15:45:59.498Z,96001.89
2019-04-25T15:48:31.096Z,95998.48
2019-04-25T15:51:02.421Z,96003.47
2019-04-25T15:53:33.818Z,96000.91
2019-04-25T15:56:05.105Z,95994.70
2019-04-25T15:58:36.162Z,95995.14
2019-04-25T16:01:07.407Z,95998.86
2019-04-25T16:03:38.890Z,96001.75
2019-04-25T16:06:10.190Z,96000.14
2019-04-25T16:08:41.867Z,96000.34
2019-04-25T16:11:12.924Z,96007.69
2019-04-25T16:13:44.721Z,95999.95
2019-04-25T16:16:19.585Z,95997.03
2019-04-25T16:18:51.255Z,95998.82
2019-04-25T16:21:22.447Z,95994.19
2019-04-25T16:23:54.231Z,95991.09
2019-04-25T16:26:30.028Z,95990.53
2019-04-25T16:29:01.990Z,95984.59
2019-04-25T16:31:44.100Z,95987.10
2019-04-25T16:34:15.352Z,95982.36
2019-04-25T16:36:46.250Z,95979.38
2019-04-25T16:39:21.925Z,95976.41
2019-04-25T16:41:53.642Z,95976.17
2019-04-25T16:44:24.900Z,95973.11
2019-04-25T16:46:56.345Z,95982.21
2019-04-25T16:49:29.839Z,95981.46
2019-04-25T16:52:01.386Z,95987.03
2019-04-25T16:54:32.725Z,95993.52
2019-04-25T16:57:03.787Z,95990.47
2019-04-25T16:59:35.546Z,95983.80
2019-04-25T17:02:06.728Z,95988.43
2019-04-25T17:04:38.726Z,95977.78
2019-04-25T17:07:10.456Z,95980.38
2019-04-25T17:09:42.775Z,95987.79
2019-04-25T17:12:14.403Z,95983.02
2019-04-25T17:14:56.845Z,95971.04
2019-04-25T17:17:40.444Z,95979.64
2019-04-25T17:20:16.201Z,95979.16
2019-04-25T17:22:47.600Z,95968.89
2019-04-25T17:25:19.758Z,95970.46
2019-04-25T17:27:51.118Z,95971.84
2019-04-25T17:30:22.242Z,95975.00
2019-04-25T17:33:12.124Z,95971.87
2019-04-25T17:36:01.075Z,95973.14
2019-04-25T17:38:38.576Z,95972.98
2019-04-25T17:41:09.997Z,95970.80
2019-04-25T17:43:41.857Z,95970.13
2019-04-25T17:46:14.154Z,95969.50
2019-04-25T17:48:51.850Z,95968.69
2019-04-25T17:51:24.171Z,95965.47
2019-04-25T17:53:55.721Z,95957.48
2019-04-25T17:56:27.124Z,95960.32
2019-04-25T17:58:58.160Z,95971.70
2019-04-25T18:01:29.141Z,95968.33
2019-04-25T18:04:00.402Z,95971.55
2019-04-25T18:06:31.487Z,95970.39
2019-04-25T18:09:02.831Z,95966.87
2019-04-25T18:11:34.788Z,95971.20
2019-04-25T18:14:06.409Z,95978.22
2019-04-25T18:16:44.928Z,95985.72
2019-04-25T18:19:42.604Z,95987.03
2019-04-25T18:22:25.610Z,95986.63
2019-04-25T18:25:08.791Z,95986.66
2019-04-25T18:27:57.312Z,95991.58
2019-04-25T18:30:30.542Z,95986.77
2019-04-25T18:33:23.875Z,95995.23
2019-04-25T18:35:58.031Z,96005.77
2019-04-25T18:38:39.684Z,96008.39
2019-04-25T18:41:18.187Z,96014.41
2019-04-25T18:43:56.176Z,96015.27
2019-04-25T18:46:31.101Z,96020.15
2019-04-25T18:49:03.708Z,96018.68
2019-04-25T18:51:35.162Z,96021.38
2019-04-25T18:54:24.180Z,96018.59
2019-04-25T18:57:17.898Z,96020.27
2019-04-25T18:59:58.464Z,96018.84
2019-04-25T19:03:06.992Z,96028.27
2019-04-25T19:05:56.875Z,96031.18
2019-04-25T19:08:28.805Z,96033.12
2019-04-25T19:11:00.025Z,96037.33
2019-04-25T19:13:31.033Z,96030.52
2019-04-25T19:16:02.168Z,96026.55
2019-04-25T19:18:33.319Z,96030.89
2019-04-25T19:21:05.788Z,96031.67
2019-04-25T19:23:36.725Z,96032.99
2019-04-25T19:26:07.060Z,96031.16
2019-04-25T19:28:40.081Z,96033.53
2019-04-25T19:31:12.000Z,96036.06
2019-04-25T19:33:43.298Z,96043.05
2019-04-25T19:36:14.759Z,96052.02
2019-04-25T19:38:46.034Z,96050.58
2019-04-25T19:41:32.532Z,96052.77
2019-04-25T19:44:09.543Z,96052.69
2019-04-25T19:46:47.094Z,96066.22
2019-04-25T19:49:18.872Z,96078.81
2019-04-25T19:51:50.687Z,96084.09
2019-04-25T19:54:21.985Z,96091.06
2019-04-25T19:56:56.372Z,96083.62
2019-04-25T19:59:26.400Z,96081.89
2019-04-25T20:01:59.955Z,96089.62
2019-04-25T20:04:36.935Z,96094.49
2019-04-25T20:07:30.869Z,96083.78
2019-04-25T20:10:36.008Z,96096.30
2019-04-25T20:13:07.459Z,96092.18
2019-04-25T20:15:38.816Z,96081.91
2019-04-25T20:18:10.733Z,96095.52
2019-04-25T20:20:41.710Z,96112.17
2019-04-25T20:23:13.360Z,96105.41
2019-04-25T20:25:46.270Z,96115.80
2019-04-25T20:28:18.001Z,96111.31
2019-04-25T20:30:48.964Z,96109.88
2019-04-25T20:33:20.961Z,96112.98
2019-04-25T20:35:53.204Z,96120.73
2019-04-25T20:38:24.928Z,96117.83
2019-04-25T20:40:56.369Z,96124.53
2019-04-25T20:43:27.831Z,96122.65
2019-04-25T20:45:59.768Z,96128.69
2019-04-25T20:48:30.179Z,96130.69
2019-04-25T20:51:01.730Z,96130.33
2019-04-25T20:53:33.410Z,96120.61
2019-04-25T20:56:04.083Z,96130.41
2019-04-25T20:58:34.396Z,96131.22
2019-04-25T21:01:05.409Z,96125.30
2019-04-25T21:03:37.188Z,96129.23
2019-04-25T21:06:14.884Z,96137.04
2019-04-25T21:08:46.535Z,96156.15
2019-04-25T21:11:17.156Z,96160.75
2019-04-25T21:14:06.028Z,96162.19
2019-04-25T21:16:48.132Z,96162.91
2019-04-25T21:19:23.759Z,96158.27
2019-04-25T21:21:56.570Z,96156.78
2019-04-25T21:24:28.532Z,96164.42
2019-04-25T21:27:00.978Z,96196.16
2019-04-25T21:29:32.443Z,96190.25
2019-04-25T21:32:03.517Z,96176.84
2019-04-25T21:34:35.188Z,96177.09
2019-04-25T21:37:07.204Z,96173.48
2019-04-25T21:39:48.358Z,96175.23
2019-04-25T21:42:26.583Z,96182.81
2019-04-25T21:44:58.955Z,96184.52
2019-04-25T21:47:30.302Z,96175.08
2019-04-25T21:50:02.837Z,96182.81
2019-04-25T21:52:35.067Z,96194.91
2019-04-25T21:55:06.497Z,96195.30
2019-04-25T21:57:38.268Z,96199.17
2019-04-25T22:00:12.123Z,96202.16
2019-04-25T22:02:43.020Z,96206.42
2019-04-25T22:05:14.151Z,96218.36
2019-04-25T22:07:46.130Z,96223.27
2019-04-25T22:10:17.591Z,96211.11
2019-04-25T22:12:48.505Z,96234.86
2019-04-25T22:15:20.456Z,96237.65
2019-04-25T22:17:51.821Z,96243.37
2019-04-25T22:20:22.754Z,96248.20
2019-04-25T22:22:53.800Z,96262.31
2019-04-25T22:25:26.165Z,96276.42
2019-04-25T22:27:58.722Z,96274.86
2019-04-25T22:30:29.980Z,96276.99
2019-04-25T22:33:22.441Z,96276.78
2019-04-25T22:36:06.988Z,96293.62
2019-04-25T22:38:38.027Z,96296.55
2019-04-25T22:41:09.489Z,96289.81
2019-04-25T22:43:44.024Z,96285.02
2019-04-25T22:46:25.431Z,96285.06
2019-04-25T22:48:49.180Z,96293.12
2019-04-25T22:51:21.021Z,96287.84
2019-04-25T22:53:52.404Z,96283.81
2019-04-25T22:56:23.508Z,96280.06
2019-04-25T22:58:54.534Z,96280.90
2019-04-25T23:01:50.887Z,96294.92
2019-04-25T23:04:39.447Z,96311.89
2019-04-25T23:07:12.139Z,96316.77
2019-04-25T23:09:43.304Z,96326.28
2019-04-25T23:12:15.017Z,96333.06
2019-04-25T23:14:46.671Z,96340.58
2019-04-25T23:17:18.307Z,96351.14
2019-04-25T23:19:49.878Z,96362.47
2019-04-25T23:22:21.291Z,96353.88
2019-04-25T23:25:01.284Z,96359.22
2019-04-25T23:30:36.508Z,96369.36
2019-04-25T23:33:08.503Z,96376.91
2019-04-25T23:35:42.166Z,96379.46
2019-04-25T23:38:14.832Z,96374.38
2019-04-25T23:40:46.803Z,96377.34
2019-04-25T23:43:18.642Z,96370.36
2019-04-25T23:45:53.838Z,96371.85
2019-04-25T23:48:25.702Z,96376.59
2019-04-25T23:50:57.127Z,96393.27
2019-04-25T23:53:30.245Z,96414.52
2019-04-25T23:56:01.554Z,96418.52
2019-04-25T23:58:33.356Z,96410.70
